Princeton, Missouri
Current Conditions -  °F | °C
As of 3:53 PM on Friday 31 Oct 2014 (Local Time) from KLWD Reporting Station
Clear Clear  
Wind Chill:   Ceiling: Unl
Heat Index:   Visibility: 10mi
Dew Point: -7°   Wind: 13mph
Humidity: 40%   Direction: 360°N
Pressure: 30.43"   Gusts: 22mph
Location:  40.4°N, 93.58°W
Report Text: KLWD 312053Z AUTO 36011G19KT 10SM CLR 06/M07 A3043 RMK AO2 SLP314 T00561072 56011
Loading
Personal Weather Stations






























Interactive Weather Map
Tropical Storm Tracking
New forecast layout! Learn more

10-Day Weather Forecast

Advertisements
Track Severe Weather on mobile